Time,TemperatureF,DewpointF,PressureIn,WindDirection,WindDirectionDegrees,WindSpeedMPH,WindSpeedGustMPH,Humidity,HourlyPrecipIn,Conditions,Clouds,dailyrainin,SoftwareType,DateUTC
2014-10-02 00:00:00,64.6,61.6,29.89,ESE,119,0.0,0.0,90,0.00,,,0.00,Wunderground v.1.15,2014-10-02 05:00:00,
2014-10-02 00:06:00,64.6,61.6,29.89,ESE,119,0.0,0.0,90,0.00,,,0.00,Wunderground v.1.15,2014-10-02 05:06:00,
2014-10-02 00:11:00,64.7,61.7,29.89,East,96,0.0,0.0,90,0.00,,,0.00,Wunderground v.1.15,2014-10-02 05:11:00,
2014-10-02 00:16:00,64.6,61.6,29.88,East,84,0.0,1.0,90,0.00,,,0.00,Wunderground v.1.15,2014-10-02 05:16:00,
2014-10-02 00:21:00,64.6,61.6,29.88,SE,145,0.0,0.0,90,0.00,,,0.00,Wunderground v.1.15,2014-10-02 05:21:00,
2014-10-02 00:23:00,64.5,61.5,29.88,SE,145,0.0,0.0,90,0.00,,,0.00,Wunderground v.1.15,2014-10-02 05:23:00,
2014-10-02 00:28:00,64.5,61.5,29.88,SE,145,0.0,0.0,90,0.00,,,0.00,Wunderground v.1.15,2014-10-02 05:28:00,
2014-10-02 00:33:00,64.5,61.5,29.88,ESE,103,0.0,1.0,90,0.00,,,0.00,Wunderground v.1.15,2014-10-02 05:33:00,
2014-10-02 00:38:00,64.7,61.7,29.88,SE,135,0.0,1.0,90,0.00,,,0.00,Wunderground v.1.15,2014-10-02 05:38:00,
2014-10-02 00:43:00,64.7,61.7,29.88,SE,141,0.0,0.0,90,0.00,,,0.00,Wunderground v.1.15,2014-10-02 05:43:00,
2014-10-02 00:48:00,64.7,61.7,29.87,SE,141,0.0,0.0,90,0.00,,,0.00,Wunderground v.1.15,2014-10-02 05:48:00,
2014-10-02 00:53:00,64.7,61.7,29.87,East,92,0.0,0.0,90,0.00,,,0.00,Wunderground v.1.15,2014-10-02 05:53:00,
2014-10-02 00:58:00,64.7,61.7,29.87,East,92,0.0,0.0,90,0.00,,,0.00,Wunderground v.1.15,2014-10-02 05:58:00,
2014-10-02 01:04:00,64.6,61.6,29.87,East,92,0.0,0.0,90,0.00,,,0.00,Wunderground v.1.15,2014-10-02 06:04:00,
2014-10-02 01:09:00,64.6,61.6,29.87,East,92,0.0,0.0,90,0.00,,,0.00,Wunderground v.1.15,2014-10-02 06:09:00,
2014-10-02 01:14:00,64.6,61.6,29.87,East,92,0.0,0.0,90,0.00,,,0.00,Wunderground v.1.15,2014-10-02 06:14:00,
2014-10-02 01:19:00,64.7,61.7,29.87,East,92,0.0,0.0,90,0.00,,,0.00,Wunderground v.1.15,2014-10-02 06:19:00,
2014-10-02 01:24:00,64.7,61.7,29.87,East,92,0.0,0.0,90,0.00,,,0.00,Wunderground v.1.15,2014-10-02 06:24:00,
2014-10-02 01:29:00,64.6,61.6,29.87,East,91,0.0,0.0,90,0.00,,,0.00,Wunderground v.1.15,2014-10-02 06:29:00,
2014-10-02 01:34:00,64.6,61.6,29.87,SE,128,0.0,0.0,90,0.00,,,0.00,Wunderground v.1.15,2014-10-02 06:34:00,
2014-10-02 01:39:00,64.6,61.6,29.87,SE,127,0.0,0.0,90,0.00,,,0.00,Wunderground v.1.15,2014-10-02 06:39:00,
2014-10-02 01:44:00,64.6,61.6,29.87,ESE,118,0.0,0.0,90,0.00,,,0.00,Wunderground v.1.15,2014-10-02 06:44:00,
2014-10-02 01:49:00,64.8,61.8,29.87,East,86,0.0,1.0,90,0.00,,,0.00,Wunderground v.1.15,2014-10-02 06:49:00,
2014-10-02 01:54:00,65.2,62.2,29.87,SE,124,0.0,2.0,90,0.00,,,0.00,Wunderground v.1.15,2014-10-02 06:54:00,
2014-10-02 02:00:00,65.5,62.2,29.87,East,100,0.0,0.0,89,0.00,,,0.00,Wunderground v.1.15,2014-10-02 07:00:00,
2014-10-02 02:06:00,65.8,62.5,29.86,ESE,115,0.0,0.0,89,0.00,,,0.00,Wunderground v.1.15,2014-10-02 07:06:00,
2014-10-02 02:12:00,65.8,62.1,29.86,ESE,115,0.0,0.0,88,0.00,,,0.00,Wunderground v.1.15,2014-10-02 07:12:00,
2014-10-02 02:17:00,65.9,62.2,29.86,ENE,59,0.0,0.0,88,0.00,,,0.00,Wunderground v.1.15,2014-10-02 07:17:00,
2014-10-02 02:22:00,65.9,62.2,29.87,ENE,60,0.0,0.0,88,0.00,,,0.00,Wunderground v.1.15,2014-10-02 07:22:00,
2014-10-02 02:27:00,66.0,62.3,29.87,ENE,59,0.0,0.0,88,0.00,,,0.00,Wunderground v.1.15,2014-10-02 07:27:00,
2014-10-02 02:32:00,66.2,62.5,29.87,ENE,60,0.0,0.0,88,0.00,,,0.00,Wunderground v.1.15,2014-10-02 07:32:00,
2014-10-02 02:37:00,66.3,62.6,29.87,ENE,60,0.0,1.0,88,0.00,,,0.00,Wunderground v.1.15,2014-10-02 07:37:00,
2014-10-02 02:43:00,66.4,62.7,29.87,ENE,59,0.0,0.0,88,0.00,,,0.00,Wunderground v.1.15,2014-10-02 07:43:00,
2014-10-02 02:48:00,66.7,63.0,29.86,ENE,60,0.0,0.0,88,0.00,,,0.00,Wunderground v.1.15,2014-10-02 07:48:00,
2014-10-02 02:53:00,66.9,62.9,29.86,ESE,114,0.0,0.0,87,0.00,,,0.00,Wunderground v.1.15,2014-10-02 07:53:00,
2014-10-02 02:58:00,67.3,63.3,29.86,ESE,117,0.0,2.0,87,0.00,,,0.00,Wunderground v.1.15,2014-10-02 07:58:00,
2014-10-02 03:04:00,67.7,63.4,29.86,SE,140,1.0,1.0,86,0.00,,,0.00,Wunderground v.1.15,2014-10-02 08:04:00,
2014-10-02 03:09:00,67.8,63.1,29.86,East,79,0.0,2.0,85,0.00,,,0.00,Wunderground v.1.15,2014-10-02 08:09:00,
2014-10-02 03:14:00,68.1,63.1,29.86,ENE,64,1.0,2.0,84,0.00,,,0.00,Wunderground v.1.15,2014-10-02 08:14:00,
2014-10-02 03:19:00,68.6,63.6,29.86,East,84,1.0,2.0,84,0.00,,,0.00,Wunderground v.1.15,2014-10-02 08:19:00,
2014-10-02 03:25:00,68.8,63.4,29.86,ESE,122,0.0,1.0,83,0.00,,,0.00,Wunderground v.1.15,2014-10-02 08:25:00,
2014-10-02 03:30:00,68.9,63.5,29.86,SE,131,0.0,0.0,83,0.00,,,0.00,Wunderground v.1.15,2014-10-02 08:30:00,
2014-10-02 03:36:00,69.0,63.3,29.86,East,85,0.0,2.0,82,0.00,,,0.00,Wunderground v.1.15,2014-10-02 08:36:00,
2014-10-02 03:41:00,69.0,63.3,29.86,SSE,153,0.0,1.0,82,0.00,,,0.00,Wunderground v.1.15,2014-10-02 08:41:00,
2014-10-02 03:46:00,69.2,63.5,29.86,ESE,103,1.0,3.0,82,0.00,,,0.00,Wunderground v.1.15,2014-10-02 08:46:00,
2014-10-02 03:51:00,69.2,63.5,29.85,SW,214,1.0,1.0,82,0.00,,,0.00,Wunderground v.1.15,2014-10-02 08:51:00,
2014-10-02 03:56:00,69.2,63.5,29.85,SE,135,1.0,1.0,82,0.00,,,0.00,Wunderground v.1.15,2014-10-02 08:56:00,
2014-10-02 04:02:00,69.1,63.4,29.86,East,91,1.0,1.0,82,0.00,,,0.00,Wunderground v.1.15,2014-10-02 09:02:00,
2014-10-02 04:07:00,69.0,63.3,29.86,ENE,64,0.0,1.0,82,0.00,,,0.00,Wunderground v.1.15,2014-10-02 09:07:00,
2014-10-02 04:12:00,69.0,63.3,29.86,East,83,0.0,1.0,82,0.00,,,0.00,Wunderground v.1.15,2014-10-02 09:12:00,
2014-10-02 04:17:00,69.1,63.4,29.86,East,100,0.0,1.0,82,0.00,,,0.00,Wunderground v.1.15,2014-10-02 09:17:00,
2014-10-02 04:22:00,69.1,63.4,29.86,SSW,194,0.0,0.0,82,0.00,,,0.00,Wunderground v.1.15,2014-10-02 09:22:00,
2014-10-02 04:27:00,69.1,63.4,29.86,East,86,0.0,0.0,82,0.00,,,0.00,Wunderground v.1.15,2014-10-02 09:27:00,
2014-10-02 04:30:00,69.2,63.5,29.86,ESE,114,0.0,0.0,82,0.00,,,0.00,Wunderground v.1.15,2014-10-02 09:30:00,
2014-10-02 04:35:00,69.2,63.5,29.86,East,91,0.0,0.0,82,0.00,,,0.00,Wunderground v.1.15,2014-10-02 09:35:00,
2014-10-02 04:40:00,69.1,63.4,29.86,SW,217,0.0,0.0,82,0.00,,,0.00,Wunderground v.1.15,2014-10-02 09:40:00,
2014-10-02 04:45:00,69.1,63.4,29.86,ENE,77,0.0,1.0,82,0.00,,,0.00,Wunderground v.1.15,2014-10-02 09:45:00,
2014-10-02 04:50:00,69.1,63.4,29.86,NE,39,0.0,1.0,82,0.00,,,0.00,Wunderground v.1.15,2014-10-02 09:50:00,
2014-10-02 04:55:00,69.0,63.3,29.87,NE,39,0.0,1.0,82,0.00,,,0.00,Wunderground v.1.15,2014-10-02 09:55:00,
2014-10-02 05:00:00,68.9,63.5,29.87,NE,40,0.0,0.0,83,0.00,,,0.00,Wunderground v.1.15,2014-10-02 10:00:00,
2014-10-02 05:06:00,68.8,63.4,29.87,NE,40,0.0,0.0,83,0.00,,,0.00,Wunderground v.1.15,2014-10-02 10:06:00,
2014-10-02 05:11:00,68.7,63.3,29.87,East,101,0.0,0.0,83,0.00,,,0.00,Wunderground v.1.15,2014-10-02 10:11:00,
2014-10-02 05:16:00,68.5,63.5,29.87,North,11,0.0,0.0,84,0.00,,,0.00,Wunderground v.1.15,2014-10-02 10:16:00,
2014-10-02 05:21:00,68.4,63.4,29.87,SE,134,0.0,0.0,84,0.00,,,0.00,Wunderground v.1.15,2014-10-02 10:21:00,
2014-10-02 05:26:00,68.3,63.3,29.87,ESE,110,0.0,0.0,84,0.00,,,0.00,Wunderground v.1.15,2014-10-02 10:26:00,
2014-10-02 05:31:00,68.2,63.2,29.87,SW,230,0.0,0.0,84,0.00,,,0.00,Wunderground v.1.15,2014-10-02 10:31:00,
2014-10-02 05:36:00,68.2,63.2,29.87,North,354,0.0,0.0,84,0.00,,,0.00,Wunderground v.1.15,2014-10-02 10:36:00,
2014-10-02 05:41:00,68.2,63.2,29.87,NNE,26,0.0,0.0,84,0.00,,,0.00,Wunderground v.1.15,2014-10-02 10:41:00,
2014-10-02 05:46:00,68.2,63.2,29.87,ESE,118,0.0,1.0,84,0.00,,,0.00,Wunderground v.1.15,2014-10-02 10:46:00,
2014-10-02 05:51:00,68.3,63.3,29.87,East,98,0.0,0.0,84,0.00,,,0.00,Wunderground v.1.15,2014-10-02 10:51:00,
2014-10-02 05:56:00,68.4,63.4,29.87,SSE,158,0.0,3.0,84,0.00,,,0.00,Wunderground v.1.15,2014-10-02 10:56:00,
2014-10-02 06:02:00,68.6,63.6,29.87,WSW,252,0.0,0.0,84,0.00,,,0.00,Wunderground v.1.15,2014-10-02 11:02:00,
2014-10-02 06:07:00,68.7,63.3,29.88,WSW,253,0.0,0.0,83,0.00,,,0.00,Wunderground v.1.15,2014-10-02 11:07:00,
2014-10-02 06:12:00,68.6,63.2,29.88,SW,218,0.0,0.0,83,0.00,,,0.00,Wunderground v.1.15,2014-10-02 11:12:00,
2014-10-02 06:18:00,68.6,63.2,29.88,SW,218,0.0,0.0,83,0.00,,,0.00,Wunderground v.1.15,2014-10-02 11:18:00,
2014-10-02 06:23:00,68.4,63.0,29.89,SW,218,0.0,0.0,83,0.00,,,0.00,Wunderground v.1.15,2014-10-02 11:23:00,
2014-10-02 06:27:00,68.3,63.3,29.89,SW,226,0.0,0.0,84,0.00,,,0.00,Wunderground v.1.15,2014-10-02 11:27:00,
2014-10-02 06:32:00,68.3,63.3,29.89,SW,226,0.0,0.0,84,0.00,,,0.00,Wunderground v.1.15,2014-10-02 11:32:00,
2014-10-02 06:37:00,68.2,63.2,29.89,SW,226,0.0,0.0,84,0.00,,,0.00,Wunderground v.1.15,2014-10-02 11:37:00,
2014-10-02 06:42:00,68.0,63.0,29.89,SE,135,0.0,0.0,84,0.00,,,0.00,Wunderground v.1.15,2014-10-02 11:42:00,
2014-10-02 06:47:00,67.8,63.1,29.89,SSE,158,0.0,0.0,85,0.00,,,0.00,Wunderground v.1.15,2014-10-02 11:47:00,
2014-10-02 06:52:00,67.6,63.3,29.89,ENE,60,0.0,1.0,86,0.00,,,0.00,Wunderground v.1.15,2014-10-02 11:52:00,
2014-10-02 06:57:00,67.3,63.0,29.90,ENE,61,0.0,1.0,86,0.00,,,0.00,Wunderground v.1.15,2014-10-02 11:57:00,
2014-10-02 07:03:00,67.1,63.1,29.90,SE,129,0.0,0.0,87,0.00,,,0.00,Wunderground v.1.15,2014-10-02 12:03:00,
2014-10-02 07:08:00,67.1,63.1,29.90,SE,129,0.0,0.0,87,0.00,,,0.00,Wunderground v.1.15,2014-10-02 12:08:00,
2014-10-02 07:11:00,67.1,63.1,29.90,SE,129,0.0,0.0,87,0.00,,,0.00,Wunderground v.1.15,2014-10-02 12:11:00,
2014-10-02 07:16:00,67.2,63.2,29.90,SE,134,0.0,1.0,87,0.00,,,0.00,Wunderground v.1.15,2014-10-02 12:16:00,
2014-10-02 07:21:00,67.4,63.4,29.91,NNW,328,0.0,4.0,87,0.00,,,0.00,Wunderground v.1.15,2014-10-02 12:21:00,
2014-10-02 07:26:00,68.5,64.1,29.92,NW,316,3.0,9.0,86,0.00,,,0.00,Wunderground v.1.15,2014-10-02 12:26:00,
2014-10-02 07:31:00,68.6,63.9,29.92,NW,309,4.0,4.0,85,0.00,,,0.00,Wunderground v.1.15,2014-10-02 12:31:00,
2014-10-02 07:36:00,68.6,63.9,29.92,WNW,298,2.0,5.0,85,0.00,,,0.00,Wunderground v.1.15,2014-10-02 12:36:00,
2014-10-02 07:41:00,68.6,63.9,29.92,WNW,301,2.0,2.0,85,0.00,,,0.00,Wunderground v.1.15,2014-10-02 12:41:00,
2014-10-02 07:46:00,68.5,63.8,29.92,SE,137,1.0,2.0,85,0.00,,,0.00,Wunderground v.1.15,2014-10-02 12:46:00,
2014-10-02 07:51:00,68.4,64.0,29.92,SE,136,1.0,1.0,86,0.00,,,0.00,Wunderground v.1.15,2014-10-02 12:51:00,
2014-10-02 07:56:00,68.4,64.0,29.91,SE,135,0.0,1.0,86,0.00,,,0.00,Wunderground v.1.15,2014-10-02 12:56:00,
2014-10-02 08:02:00,68.4,64.4,29.91,SE,143,1.0,1.0,87,0.00,,,0.00,Wunderground v.1.15,2014-10-02 13:02:00,
2014-10-02 08:07:00,68.4,64.7,29.91,SE,142,1.0,1.0,88,0.00,,,0.00,Wunderground v.1.15,2014-10-02 13:07:00,
2014-10-02 08:12:00,68.4,64.7,29.91,SE,143,0.0,0.0,88,0.00,,,0.00,Wunderground v.1.15,2014-10-02 13:12:00,
2014-10-02 08:17:00,68.6,64.9,29.91,SE,143,0.0,0.0,88,0.00,,,0.00,Wunderground v.1.15,2014-10-02 13:17:00,
2014-10-02 08:23:00,69.1,65.7,29.91,SE,143,0.0,0.0,89,0.00,,,0.00,Wunderground v.1.15,2014-10-02 13:23:00,
2014-10-02 08:28:00,69.6,65.9,29.91,East,92,0.0,0.0,88,0.00,,,0.00,Wunderground v.1.15,2014-10-02 13:28:00,
2014-10-02 08:31:00,69.9,65.9,29.91,East,90,0.0,0.0,87,0.00,,,0.00,Wunderground v.1.15,2014-10-02 13:31:00,
2014-10-02 08:36:00,70.5,66.1,29.91,ESE,108,0.0,1.0,86,0.00,,,0.00,Wunderground v.1.15,2014-10-02 13:36:00,
2014-10-02 08:41:00,71.3,66.2,29.91,ESE,113,0.0,1.0,84,0.00,,,0.00,Wunderground v.1.15,2014-10-02 13:41:00,
2014-10-02 08:46:00,71.8,66.0,29.92,SE,124,1.0,1.0,82,0.00,,,0.00,Wunderground v.1.15,2014-10-02 13:46:00,
2014-10-02 08:51:00,72.0,65.8,29.92,ESE,120,0.0,0.0,81,0.00,,,0.00,Wunderground v.1.15,2014-10-02 13:51:00,
2014-10-02 08:56:00,72.4,66.6,29.92,ESE,120,0.0,0.0,82,0.00,,,0.00,Wunderground v.1.15,2014-10-02 13:56:00,
2014-10-02 09:02:00,72.6,67.1,29.92,ESE,120,0.0,0.0,83,0.00,,,0.00,Wunderground v.1.15,2014-10-02 14:02:00,
2014-10-02 09:07:00,73.1,66.9,29.92,ESE,116,0.0,1.0,81,0.00,,,0.00,Wunderground v.1.15,2014-10-02 14:07:00,
2014-10-02 09:12:00,73.6,66.3,29.92,ESE,114,1.0,1.0,78,0.00,,,0.00,Wunderground v.1.15,2014-10-02 14:12:00,
2014-10-02 09:17:00,74.1,66.8,29.92,SSE,160,1.0,1.0,78,0.00,,,0.00,Wunderground v.1.15,2014-10-02 14:17:00,
2014-10-02 09:22:00,74.2,66.1,29.92,East,83,0.0,1.0,76,0.00,,,0.00,Wunderground v.1.15,2014-10-02 14:22:00,
2014-10-02 09:27:00,74.8,66.7,29.92,SSE,152,0.0,1.0,76,0.00,,,0.00,Wunderground v.1.15,2014-10-02 14:27:00,
2014-10-02 09:32:00,75.6,66.7,29.91,ESE,114,0.0,3.0,74,0.00,,,0.00,Wunderground v.1.15,2014-10-02 14:32:00,
2014-10-02 09:37:00,76.4,66.7,29.91,SSW,204,1.0,3.0,72,0.00,,,0.00,Wunderground v.1.15,2014-10-02 14:37:00,
2014-10-02 09:42:00,77.1,67.4,29.91,SE,131,2.0,2.0,72,0.00,,,0.00,Wunderground v.1.15,2014-10-02 14:42:00,
2014-10-02 09:47:00,77.4,66.4,29.91,NW,307,2.0,4.0,69,0.00,,,0.00,Wunderground v.1.15,2014-10-02 14:47:00,
2014-10-02 09:52:00,78.0,66.6,29.91,WNW,286,1.0,2.0,68,0.00,,,0.00,Wunderground v.1.15,2014-10-02 14:52:00,
2014-10-02 09:58:00,78.4,67.8,29.90,East,101,1.0,3.0,70,0.00,,,0.00,Wunderground v.1.15,2014-10-02 14:58:00,
2014-10-02 10:03:00,79.0,68.0,29.90,West,280,1.0,3.0,69,0.00,,,0.00,Wunderground v.1.15,2014-10-02 15:03:00,
2014-10-02 10:08:00,79.2,67.7,29.91,SE,146,1.0,3.0,68,0.00,,,0.00,Wunderground v.1.15,2014-10-02 15:08:00,
2014-10-02 10:14:00,79.7,68.2,29.90,SW,225,1.0,2.0,68,0.00,,,0.00,Wunderground v.1.15,2014-10-02 15:14:00,
2014-10-02 10:20:00,80.3,68.3,29.90,SW,217,1.0,3.0,67,0.00,,,0.00,Wunderground v.1.15,2014-10-02 15:20:00,
2014-10-02 10:24:00,80.5,69.0,29.90,NE,39,1.0,3.0,68,0.00,,,0.00,Wunderground v.1.15,2014-10-02 15:24:00,
2014-10-02 10:29:00,80.4,68.0,29.90,WNW,286,2.0,4.0,66,0.00,,,0.00,Wunderground v.1.15,2014-10-02 15:29:00,
2014-10-02 10:34:00,80.4,68.4,29.90,WSW,252,2.0,5.0,67,0.00,,,0.00,Wunderground v.1.15,2014-10-02 15:34:00,
2014-10-02 10:39:00,80.5,69.4,29.90,ESE,104,2.0,5.0,69,0.00,,,0.00,Wunderground v.1.15,2014-10-02 15:39:00,
2014-10-02 10:45:00,80.7,69.2,29.89,SW,225,2.0,4.0,68,0.00,,,0.00,Wunderground v.1.15,2014-10-02 15:45:00,
2014-10-02 10:50:00,80.8,69.2,29.89,SSW,204,3.0,3.0,68,0.00,,,0.00,Wunderground v.1.15,2014-10-02 15:50:00,
2014-10-02 10:55:00,80.9,69.8,29.89,WNW,288,3.0,4.0,69,0.00,,,0.00,Wunderground v.1.15,2014-10-02 15:55:00,
2014-10-02 11:00:00,81.2,69.6,29.88,WSW,255,2.0,2.0,68,0.00,,,0.00,Wunderground v.1.15,2014-10-02 16:00:00,
2014-10-02 11:06:00,81.6,70.4,29.88,WSW,255,2.0,7.0,69,0.00,,,0.00,Wunderground v.1.15,2014-10-02 16:06:00,
2014-10-02 11:11:00,82.1,70.5,29.88,SSE,150,2.0,2.0,68,0.00,,,0.00,Wunderground v.1.15,2014-10-02 16:11:00,
2014-10-02 11:16:00,82.2,70.6,29.88,SSW,201,2.0,3.0,68,0.00,,,0.00,Wunderground v.1.15,2014-10-02 16:16:00,
2014-10-02 11:21:00,82.2,70.6,29.88,SE,136,2.0,2.0,68,0.00,,,0.00,Wunderground v.1.15,2014-10-02 16:21:00,
2014-10-02 11:26:00,82.6,71.0,29.88,SW,225,3.0,6.0,68,0.00,,,0.00,Wunderground v.1.15,2014-10-02 16:26:00,
2014-10-02 11:31:00,83.0,71.8,29.88,SW,225,3.0,7.0,69,0.00,,,0.00,Wunderground v.1.15,2014-10-02 16:31:00,
2014-10-02 11:36:00,83.3,71.6,29.87,South,191,3.0,7.0,68,0.00,,,0.00,Wunderground v.1.15,2014-10-02 16:36:00,
2014-10-02 11:42:00,83.3,71.6,29.87,NE,46,3.0,4.0,68,0.00,,,0.00,Wunderground v.1.15,2014-10-02 16:42:00,
2014-10-02 11:47:00,83.5,71.8,29.87,WSW,238,4.0,7.0,68,0.00,,,0.00,Wunderground v.1.15,2014-10-02 16:47:00,
2014-10-02 11:52:00,83.6,71.9,29.86,SSE,150,4.0,4.0,68,0.00,,,0.00,Wunderground v.1.15,2014-10-02 16:52:00,